sensor_id;sensor_type;location;lat;lon;timestamp;P1;durP1;ratioP1;P2;durP2;ratioP2
42244;SDS011;27912;51.828;5.688;2022-08-19T00:02:04;11.52;;;10.02;;
42244;SDS011;27912;51.828;5.688;2022-08-19T00:04:31;10.00;;;8.98;;
42244;SDS011;27912;51.828;5.688;2022-08-19T00:06:59;8.30;;;7.35;;
42244;SDS011;27912;51.828;5.688;2022-08-19T00:09:25;9.35;;;7.65;;
42244;SDS011;27912;51.828;5.688;2022-08-19T00:11:52;12.10;;;9.32;;
42244;SDS011;27912;51.828;5.688;2022-08-19T00:14:20;10.57;;;9.35;;
42244;SDS011;27912;51.828;5.688;2022-08-19T00:16:46;10.15;;;9.25;;
42244;SDS011;27912;51.828;5.688;2022-08-19T00:19:13;10.65;;;9.65;;
42244;SDS011;27912;51.828;5.688;2022-08-19T00:21:40;11.93;;;10.80;;
42244;SDS011;27912;51.828;5.688;2022-08-19T00:24:07;10.45;;;9.02;;
42244;SDS011;27912;51.828;5.688;2022-08-19T00:26:34;10.10;;;8.95;;
42244;SDS011;27912;51.828;5.688;2022-08-19T00:29:00;11.57;;;9.73;;
42244;SDS011;27912;51.828;5.688;2022-08-19T00:31:27;11.95;;;10.68;;
42244;SDS011;27912;51.828;5.688;2022-08-19T00:33:53;12.40;;;11.15;;
42244;SDS011;27912;51.828;5.688;2022-08-19T00:36:19;12.57;;;10.88;;
42244;SDS011;27912;51.828;5.688;2022-08-19T00:38:45;13.05;;;11.73;;
42244;SDS011;27912;51.828;5.688;2022-08-19T00:41:15;13.10;;;11.25;;
42244;SDS011;27912;51.828;5.688;2022-08-19T00:43:43;13.20;;;10.77;;
42244;SDS011;27912;51.828;5.688;2022-08-19T00:46:20;13.38;;;11.13;;
42244;SDS011;27912;51.828;5.688;2022-08-19T00:48:46;13.90;;;11.27;;
42244;SDS011;27912;51.828;5.688;2022-08-19T00:51:12;12.93;;;11.70;;
42244;SDS011;27912;51.828;5.688;2022-08-19T00:53:37;12.60;;;11.30;;
42244;SDS011;27912;51.828;5.688;2022-08-19T00:56:04;14.00;;;11.15;;
42244;SDS011;27912;51.828;5.688;2022-08-19T00:58:32;13.65;;;11.77;;
42244;SDS011;27912;51.828;5.688;2022-08-19T01:00:59;13.25;;;11.90;;
42244;SDS011;27912;51.828;5.688;2022-08-19T01:03:25;14.98;;;12.52;;
42244;SDS011;27912;51.828;5.688;2022-08-19T01:05:51;14.63;;;13.13;;
42244;SDS011;27912;51.828;5.688;2022-08-19T01:08:19;14.80;;;13.32;;
42244;SDS011;27912;51.828;5.688;2022-08-19T01:10:46;16.23;;;14.30;;
42244;SDS011;27912;51.828;5.688;2022-08-19T01:13:16;18.23;;;14.35;;
42244;SDS011;27912;51.828;5.688;2022-08-19T01:15:48;18.23;;;15.10;;
42244;SDS011;27912;51.828;5.688;2022-08-19T01:20:43;15.45;;;13.82;;
42244;SDS011;27912;51.828;5.688;2022-08-19T01:23:10;15.15;;;13.55;;
42244;SDS011;27912;51.828;5.688;2022-08-19T01:26:10;9.00;;;8.13;;
42244;SDS011;27912;51.828;5.688;2022-08-19T01:28:29;18.10;;;16.17;;
42244;SDS011;27912;51.828;5.688;2022-08-19T01:30:55;20.27;;;17.60;;
42244;SDS011;27912;51.828;5.688;2022-08-19T01:33:21;21.27;;;17.70;;
42244;SDS011;27912;51.828;5.688;2022-08-19T01:35:47;21.80;;;18.42;;
42244;SDS011;27912;51.828;5.688;2022-08-19T01:38:24;22.70;;;19.58;;
42244;SDS011;27912;51.828;5.688;2022-08-19T01:40:51;25.42;;;15.85;;
42244;SDS011;27912;51.828;5.688;2022-08-19T01:43:17;27.38;;;19.77;;
42244;SDS011;27912;51.828;5.688;2022-08-19T01:45:43;36.45;;;22.05;;
42244;SDS011;27912;51.828;5.688;2022-08-19T01:48:09;36.17;;;22.30;;
42244;SDS011;27912;51.828;5.688;2022-08-19T01:50:37;44.15;;;20.70;;
42244;SDS011;27912;51.828;5.688;2022-08-19T01:53:04;34.15;;;19.80;;
42244;SDS011;27912;51.828;5.688;2022-08-19T01:55:31;42.75;;;20.33;;
42244;SDS011;27912;51.828;5.688;2022-08-19T01:58:00;45.60;;;20.20;;
42244;SDS011;27912;51.828;5.688;2022-08-19T02:00:30;24.63;;;21.02;;
42244;SDS011;27912;51.828;5.688;2022-08-19T02:02:57;22.42;;;19.88;;
42244;SDS011;27912;51.828;5.688;2022-08-19T02:05:22;32.75;;;19.55;;
42244;SDS011;27912;51.828;5.688;2022-08-19T02:07:49;20.75;;;15.77;;
42244;SDS011;27912;51.828;5.688;2022-08-19T02:10:16;16.33;;;14.32;;
42244;SDS011;27912;51.828;5.688;2022-08-19T02:12:44;16.55;;;14.82;;
42244;SDS011;27912;51.828;5.688;2022-08-19T02:15:10;16.77;;;14.57;;
42244;SDS011;27912;51.828;5.688;2022-08-19T02:17:37;18.33;;;13.65;;
42244;SDS011;27912;51.828;5.688;2022-08-19T02:20:03;11.75;;;10.55;;
42244;SDS011;27912;51.828;5.688;2022-08-19T02:22:30;13.57;;;9.93;;
42244;SDS011;27912;51.828;5.688;2022-08-19T02:24:55;10.60;;;9.50;;
42244;SDS011;27912;51.828;5.688;2022-08-19T02:27:21;11.52;;;10.32;;
42244;SDS011;27912;51.828;5.688;2022-08-19T02:29:48;22.00;;;10.52;;
42244;SDS011;27912;51.828;5.688;2022-08-19T02:32:15;50.42;;;13.35;;
42244;SDS011;27912;51.828;5.688;2022-08-19T02:34:43;34.47;;;10.73;;
42244;SDS011;27912;51.828;5.688;2022-08-19T02:37:09;37.63;;;12.38;;
42244;SDS011;27912;51.828;5.688;2022-08-19T02:39:54;15.57;;;12.13;;
42244;SDS011;27912;51.828;5.688;2022-08-19T02:42:20;21.83;;;14.25;;
42244;SDS011;27912;51.828;5.688;2022-08-19T02:44:46;19.42;;;13.52;;
42244;SDS011;27912;51.828;5.688;2022-08-19T02:47:11;18.00;;;14.20;;
42244;SDS011;27912;51.828;5.688;2022-08-19T02:49:39;23.50;;;15.95;;
42244;SDS011;27912;51.828;5.688;2022-08-19T02:52:04;44.47;;;16.55;;
42244;SDS011;27912;51.828;5.688;2022-08-19T02:54:30;36.20;;;16.77;;
42244;SDS011;27912;51.828;5.688;2022-08-19T02:56:55;38.83;;;16.17;;
42244;SDS011;27912;51.828;5.688;2022-08-19T02:59:21;63.53;;;17.65;;
42244;SDS011;27912;51.828;5.688;2022-08-19T03:01:46;35.97;;;16.70;;
42244;SDS011;27912;51.828;5.688;2022-08-19T03:04:13;34.65;;;17.63;;
42244;SDS011;27912;51.828;5.688;2022-08-19T03:06:41;22.52;;;16.55;;
42244;SDS011;27912;51.828;5.688;2022-08-19T03:09:08;21.67;;;16.48;;
42244;SDS011;27912;51.828;5.688;2022-08-19T03:11:33;25.60;;;18.83;;
42244;SDS011;27912;51.828;5.688;2022-08-19T03:14:00;25.65;;;17.48;;
42244;SDS011;27912;51.828;5.688;2022-08-19T03:16:28;31.20;;;18.20;;
42244;SDS011;27912;51.828;5.688;2022-08-19T03:18:56;19.95;;;17.92;;
42244;SDS011;27912;51.828;5.688;2022-08-19T03:21:25;18.70;;;16.80;;
42244;SDS011;27912;51.828;5.688;2022-08-19T03:23:55;18.70;;;16.67;;
42244;SDS011;27912;51.828;5.688;2022-08-19T03:26:25;22.50;;;15.43;;
42244;SDS011;27912;51.828;5.688;2022-08-19T03:28:51;25.30;;;17.52;;
42244;SDS011;27912;51.828;5.688;2022-08-19T03:31:17;17.50;;;14.45;;
42244;SDS011;27912;51.828;5.688;2022-08-19T03:33:44;29.73;;;16.50;;
42244;SDS011;27912;51.828;5.688;2022-08-19T03:36:11;28.27;;;17.83;;
42244;SDS011;27912;51.828;5.688;2022-08-19T03:38:41;48.25;;;18.35;;
42244;SDS011;27912;51.828;5.688;2022-08-19T03:41:11;67.30;;;20.98;;
42244;SDS011;27912;51.828;5.688;2022-08-19T03:46:09;35.10;;;18.10;;
42244;SDS011;27912;51.828;5.688;2022-08-19T03:48:36;114.57;;;19.27;;
42244;SDS011;27912;51.828;5.688;2022-08-19T03:51:03;168.73;;;25.10;;
42244;SDS011;27912;51.828;5.688;2022-08-19T03:53:30;111.63;;;20.52;;
42244;SDS011;27912;51.828;5.688;2022-08-19T03:55:56;43.75;;;18.85;;
42244;SDS011;27912;51.828;5.688;2022-08-19T03:58:24;62.50;;;19.70;;
42244;SDS011;27912;51.828;5.688;2022-08-19T04:00:50;69.18;;;19.70;;
42244;SDS011;27912;51.828;5.688;2022-08-19T04:03:16;39.33;;;18.35;;
42244;SDS011;27912;51.828;5.688;2022-08-19T04:05:43;28.35;;;17.80;;
42244;SDS011;27912;51.828;5.688;2022-08-19T04:08:09;34.22;;;18.58;;
42244;SDS011;27912;51.828;5.688;2022-08-19T04:10:35;31.77;;;18.05;;
42244;SDS011;27912;51.828;5.688;2022-08-19T04:13:02;23.05;;;18.02;;
42244;SDS011;27912;51.828;5.688;2022-08-19T04:15:30;24.23;;;18.40;;
42244;SDS011;27912;51.828;5.688;2022-08-19T04:18:00;22.50;;;18.48;;
42244;SDS011;27912;51.828;5.688;2022-08-19T04:20:26;16.13;;;14.52;;
42244;SDS011;27912;51.828;5.688;2022-08-19T04:22:51;20.90;;;14.48;;
42244;SDS011;27912;51.828;5.688;2022-08-19T04:25:17;55.55;;;16.08;;
42244;SDS011;27912;51.828;5.688;2022-08-19T04:27:43;37.03;;;16.77;;
42244;SDS011;27912;51.828;5.688;2022-08-19T04:30:11;20.48;;;17.83;;
42244;SDS011;27912;51.828;5.688;2022-08-19T04:32:38;36.17;;;17.17;;
42244;SDS011;27912;51.828;5.688;2022-08-19T04:35:03;56.17;;;18.20;;
42244;SDS011;27912;51.828;5.688;2022-08-19T04:37:29;42.17;;;18.63;;
42244;SDS011;27912;51.828;5.688;2022-08-19T04:39:57;34.13;;;17.13;;
42244;SDS011;27912;51.828;5.688;2022-08-19T04:42:41;27.58;;;17.67;;
42244;SDS011;27912;51.828;5.688;2022-08-19T04:45:08;33.10;;;19.60;;
42244;SDS011;27912;51.828;5.688;2022-08-19T04:47:37;31.10;;;18.42;;
42244;SDS011;27912;51.828;5.688;2022-08-19T04:50:03;29.63;;;20.40;;
42244;SDS011;27912;51.828;5.688;2022-08-19T04:52:29;51.03;;;21.20;;
42244;SDS011;27912;51.828;5.688;2022-08-19T04:54:56;74.03;;;23.60;;
42244;SDS011;27912;51.828;5.688;2022-08-19T04:57:22;70.22;;;24.02;;
42244;SDS011;27912;51.828;5.688;2022-08-19T04:59:48;93.70;;;24.17;;
42244;SDS011;27912;51.828;5.688;2022-08-19T05:02:18;217.80;;;28.70;;
42244;SDS011;27912;51.828;5.688;2022-08-19T05:04:43;193.63;;;30.05;;
42244;SDS011;27912;51.828;5.688;2022-08-19T05:07:09;225.38;;;30.45;;
42244;SDS011;27912;51.828;5.688;2022-08-19T05:09:35;118.43;;;28.27;;
42244;SDS011;27912;51.828;5.688;2022-08-19T05:12:01;127.95;;;27.45;;
42244;SDS011;27912;51.828;5.688;2022-08-19T05:14:26;156.35;;;29.35;;
42244;SDS011;27912;51.828;5.688;2022-08-19T05:16:53;105.55;;;28.67;;
42244;SDS011;27912;51.828;5.688;2022-08-19T05:19:19;165.85;;;30.98;;
42244;SDS011;27912;51.828;5.688;2022-08-19T05:22:03;93.03;;;27.17;;
42244;SDS011;27912;51.828;5.688;2022-08-19T05:24:47;88.85;;;27.90;;
42244;SDS011;27912;51.828;5.688;2022-08-19T05:27:12;74.03;;;27.88;;
42244;SDS011;27912;51.828;5.688;2022-08-19T05:29:38;71.72;;;29.75;;
42244;SDS011;27912;51.828;5.688;2022-08-19T05:32:04;76.88;;;27.73;;
42244;SDS011;27912;51.828;5.688;2022-08-19T05:34:33;75.20;;;30.25;;
42244;SDS011;27912;51.828;5.688;2022-08-19T05:37:01;46.95;;;29.40;;
42244;SDS011;27912;51.828;5.688;2022-08-19T05:39:28;46.05;;;30.48;;
42244;SDS011;27912;51.828;5.688;2022-08-19T05:41:57;58.33;;;34.97;;
42244;SDS011;27912;51.828;5.688;2022-08-19T05:44:25;66.13;;;37.97;;
42244;SDS011;27912;51.828;5.688;2022-08-19T05:46:52;66.22;;;39.33;;
42244;SDS011;27912;51.828;5.688;2022-08-19T05:49:18;74.50;;;41.58;;
42244;SDS011;27912;51.828;5.688;2022-08-19T05:51:46;75.82;;;42.20;;
42244;SDS011;27912;51.828;5.688;2022-08-19T05:54:11;68.63;;;41.30;;
42244;SDS011;27912;51.828;5.688;2022-08-19T05:56:38;74.90;;;43.53;;
42244;SDS011;27912;51.828;5.688;2022-08-19T05:59:05;74.07;;;45.58;;
42244;SDS011;27912;51.828;5.688;2022-08-19T06:01:34;77.35;;;45.20;;
42244;SDS011;27912;51.828;5.688;2022-08-19T06:04:01;71.80;;;42.70;;
42244;SDS011;27912;51.828;5.688;2022-08-19T06:06:27;70.57;;;41.95;;
42244;SDS011;27912;51.828;5.688;2022-08-19T06:08:53;69.07;;;41.08;;
42244;SDS011;27912;51.828;5.688;2022-08-19T06:11:31;71.57;;;41.35;;
42244;SDS011;27912;51.828;5.688;2022-08-19T06:14:02;69.43;;;39.17;;
42244;SDS011;27912;51.828;5.688;2022-08-19T06:16:38;73.70;;;41.25;;
42244;SDS011;27912;51.828;5.688;2022-08-19T06:19:06;76.05;;;41.70;;
42244;SDS011;27912;51.828;5.688;2022-08-19T06:21:35;78.22;;;44.03;;
42244;SDS011;27912;51.828;5.688;2022-08-19T06:24:02;81.82;;;44.38;;
42244;SDS011;27912;51.828;5.688;2022-08-19T06:26:30;81.97;;;43.95;;
42244;SDS011;27912;51.828;5.688;2022-08-19T06:28:56;79.15;;;44.00;;
42244;SDS011;27912;51.828;5.688;2022-08-19T06:31:24;80.72;;;44.05;;
42244;SDS011;27912;51.828;5.688;2022-08-19T06:33:51;78.00;;;44.38;;
42244;SDS011;27912;51.828;5.688;2022-08-19T06:36:17;75.43;;;43.33;;
42244;SDS011;27912;51.828;5.688;2022-08-19T06:38:43;84.95;;;45.45;;
42244;SDS011;27912;51.828;5.688;2022-08-19T06:41:08;85.47;;;45.75;;
42244;SDS011;27912;51.828;5.688;2022-08-19T06:43:34;80.07;;;45.42;;
42244;SDS011;27912;51.828;5.688;2022-08-19T06:46:01;81.57;;;44.95;;
42244;SDS011;27912;51.828;5.688;2022-08-19T06:48:28;86.85;;;46.95;;
42244;SDS011;27912;51.828;5.688;2022-08-19T06:50:54;79.35;;;44.58;;
42244;SDS011;27912;51.828;5.688;2022-08-19T06:53:20;75.53;;;44.97;;
42244;SDS011;27912;51.828;5.688;2022-08-19T06:55:46;77.45;;;44.83;;
42244;SDS011;27912;51.828;5.688;2022-08-19T06:58:12;80.28;;;46.15;;
42244;SDS011;27912;51.828;5.688;2022-08-19T07:00:37;77.82;;;45.78;;
42244;SDS011;27912;51.828;5.688;2022-08-19T07:03:03;76.93;;;44.45;;
42244;SDS011;27912;51.828;5.688;2022-08-19T07:05:28;80.50;;;43.88;;
42244;SDS011;27912;51.828;5.688;2022-08-19T07:07:54;73.13;;;43.95;;
42244;SDS011;27912;51.828;5.688;2022-08-19T07:10:19;78.15;;;45.55;;
42244;SDS011;27912;51.828;5.688;2022-08-19T07:12:45;80.25;;;46.15;;
42244;SDS011;27912;51.828;5.688;2022-08-19T07:15:12;84.95;;;48.15;;
42244;SDS011;27912;51.828;5.688;2022-08-19T07:17:38;79.03;;;47.13;;
42244;SDS011;27912;51.828;5.688;2022-08-19T07:20:04;81.85;;;51.13;;
42244;SDS011;27912;51.828;5.688;2022-08-19T07:22:32;78.60;;;46.47;;
42244;SDS011;27912;51.828;5.688;2022-08-19T07:24:59;82.40;;;48.90;;
42244;SDS011;27912;51.828;5.688;2022-08-19T07:27:25;84.18;;;50.63;;
42244;SDS011;27912;51.828;5.688;2022-08-19T07:29:51;82.32;;;50.15;;
42244;SDS011;27912;51.828;5.688;2022-08-19T07:32:17;80.68;;;48.08;;
42244;SDS011;27912;51.828;5.688;2022-08-19T07:34:43;79.45;;;47.25;;
42244;SDS011;27912;51.828;5.688;2022-08-19T07:37:10;82.88;;;48.22;;
42244;SDS011;27912;51.828;5.688;2022-08-19T07:39:36;80.47;;;46.92;;
42244;SDS011;27912;51.828;5.688;2022-08-19T07:42:05;79.80;;;43.72;;
42244;SDS011;27912;51.828;5.688;2022-08-19T07:44:33;81.32;;;44.92;;
42244;SDS011;27912;51.828;5.688;2022-08-19T07:47:00;76.25;;;44.00;;
42244;SDS011;27912;51.828;5.688;2022-08-19T07:49:25;69.35;;;39.63;;
42244;SDS011;27912;51.828;5.688;2022-08-19T07:51:53;69.18;;;41.78;;
42244;SDS011;27912;51.828;5.688;2022-08-19T07:54:22;68.93;;;39.13;;
42244;SDS011;27912;51.828;5.688;2022-08-19T07:56:48;68.32;;;41.05;;
42244;SDS011;27912;51.828;5.688;2022-08-19T07:59:15;67.68;;;42.08;;
42244;SDS011;27912;51.828;5.688;2022-08-19T08:01:42;70.18;;;41.03;;
42244;SDS011;27912;51.828;5.688;2022-08-19T08:04:08;71.55;;;43.58;;
42244;SDS011;27912;51.828;5.688;2022-08-19T08:06:53;71.88;;;41.20;;
42244;SDS011;27912;51.828;5.688;2022-08-19T08:09:38;65.55;;;39.00;;
42244;SDS011;27912;51.828;5.688;2022-08-19T08:12:06;63.72;;;40.50;;
42244;SDS011;27912;51.828;5.688;2022-08-19T08:17:10;60.85;;;36.78;;
42244;SDS011;27912;51.828;5.688;2022-08-19T08:19:36;55.83;;;36.55;;
42244;SDS011;27912;51.828;5.688;2022-08-19T08:22:02;56.60;;;35.13;;
42244;SDS011;27912;51.828;5.688;2022-08-19T08:24:30;55.08;;;35.58;;
42244;SDS011;27912;51.828;5.688;2022-08-19T08:26:57;52.70;;;34.88;;
42244;SDS011;27912;51.828;5.688;2022-08-19T08:29:25;54.65;;;34.97;;
42244;SDS011;27912;51.828;5.688;2022-08-19T08:31:52;54.65;;;33.47;;
42244;SDS011;27912;51.828;5.688;2022-08-19T08:34:18;54.22;;;34.40;;
42244;SDS011;27912;51.828;5.688;2022-08-19T08:36:45;58.45;;;33.47;;
42244;SDS011;27912;51.828;5.688;2022-08-19T08:39:12;51.70;;;33.97;;
42244;SDS011;27912;51.828;5.688;2022-08-19T08:47:13;45.58;;;29.15;;
42244;SDS011;27912;51.828;5.688;2022-08-19T08:49:54;49.45;;;30.58;;
42244;SDS011;27912;51.828;5.688;2022-08-19T08:54:51;48.42;;;28.45;;
42244;SDS011;27912;51.828;5.688;2022-08-19T08:57:22;47.30;;;31.25;;
42244;SDS011;27912;51.828;5.688;2022-08-19T08:59:53;48.10;;;30.13;;
42244;SDS011;27912;51.828;5.688;2022-08-19T09:02:21;48.70;;;31.60;;
42244;SDS011;27912;51.828;5.688;2022-08-19T09:04:47;47.60;;;30.67;;
42244;SDS011;27912;51.828;5.688;2022-08-19T09:09:51;42.25;;;28.15;;
42244;SDS011;27912;51.828;5.688;2022-08-19T09:12:40;40.47;;;26.33;;
42244;SDS011;27912;51.828;5.688;2022-08-19T09:15:22;49.83;;;29.02;;
42244;SDS011;27912;51.828;5.688;2022-08-19T09:17:53;44.55;;;26.23;;
42244;SDS011;27912;51.828;5.688;2022-08-19T09:20:20;42.17;;;27.60;;
42244;SDS011;27912;51.828;5.688;2022-08-19T09:22:47;42.67;;;26.92;;
42244;SDS011;27912;51.828;5.688;2022-08-19T09:25:18;38.42;;;25.15;;
42244;SDS011;27912;51.828;5.688;2022-08-19T09:27:47;45.25;;;26.45;;
42244;SDS011;27912;51.828;5.688;2022-08-19T09:30:15;37.60;;;24.73;;
42244;SDS011;27912;51.828;5.688;2022-08-19T09:32:43;32.40;;;21.75;;
42244;SDS011;27912;51.828;5.688;2022-08-19T09:35:10;39.17;;;24.88;;
42244;SDS011;27912;51.828;5.688;2022-08-19T09:37:37;31.77;;;22.85;;
42244;SDS011;27912;51.828;5.688;2022-08-19T09:40:03;31.23;;;21.50;;
42244;SDS011;27912;51.828;5.688;2022-08-19T09:42:29;31.77;;;21.85;;
42244;SDS011;27912;51.828;5.688;2022-08-19T09:44:55;35.92;;;23.45;;
42244;SDS011;27912;51.828;5.688;2022-08-19T09:47:20;34.85;;;22.80;;
42244;SDS011;27912;51.828;5.688;2022-08-19T09:49:46;34.70;;;24.33;;
42244;SDS011;27912;51.828;5.688;2022-08-19T09:52:13;34.80;;;22.15;;
42244;SDS011;27912;51.828;5.688;2022-08-19T09:54:40;32.30;;;23.35;;
42244;SDS011;27912;51.828;5.688;2022-08-19T09:57:05;32.10;;;22.80;;
42244;SDS011;27912;51.828;5.688;2022-08-19T09:59:31;30.70;;;22.10;;
42244;SDS011;27912;51.828;5.688;2022-08-19T10:01:57;31.13;;;21.83;;
42244;SDS011;27912;51.828;5.688;2022-08-19T10:04:22;32.08;;;21.60;;
42244;SDS011;27912;51.828;5.688;2022-08-19T10:07:08;30.02;;;21.40;;
42244;SDS011;27912;51.828;5.688;2022-08-19T10:09:34;28.77;;;19.30;;
42244;SDS011;27912;51.828;5.688;2022-08-19T10:11:59;28.10;;;19.50;;
42244;SDS011;27912;51.828;5.688;2022-08-19T10:14:26;26.08;;;18.50;;
42244;SDS011;27912;51.828;5.688;2022-08-19T10:16:52;25.10;;;17.40;;
42244;SDS011;27912;51.828;5.688;2022-08-19T10:19:18;24.27;;;17.98;;
42244;SDS011;27912;51.828;5.688;2022-08-19T10:21:46;24.90;;;16.90;;
42244;SDS011;27912;51.828;5.688;2022-08-19T10:24:11;23.45;;;17.35;;
42244;SDS011;27912;51.828;5.688;2022-08-19T10:26:38;24.95;;;16.67;;
42244;SDS011;27912;51.828;5.688;2022-08-19T10:29:06;29.75;;;17.95;;
42244;SDS011;27912;51.828;5.688;2022-08-19T10:31:33;26.20;;;16.70;;
42244;SDS011;27912;51.828;5.688;2022-08-19T10:33:59;24.10;;;17.27;;
42244;SDS011;27912;51.828;5.688;2022-08-19T10:36:27;24.70;;;18.80;;
42244;SDS011;27912;51.828;5.688;2022-08-19T10:41:26;26.10;;;16.75;;
42244;SDS011;27912;51.828;5.688;2022-08-19T10:43:57;25.05;;;18.27;;
42244;SDS011;27912;51.828;5.688;2022-08-19T10:46:25;26.92;;;17.65;;
42244;SDS011;27912;51.828;5.688;2022-08-19T10:48:53;20.63;;;16.55;;
42244;SDS011;27912;51.828;5.688;2022-08-19T10:51:19;21.02;;;16.38;;
42244;SDS011;27912;51.828;5.688;2022-08-19T10:54:04;24.15;;;17.15;;
42244;SDS011;27912;51.828;5.688;2022-08-19T10:56:30;22.45;;;16.83;;
42244;SDS011;27912;51.828;5.688;2022-08-19T10:59:16;22.58;;;15.43;;
42244;SDS011;27912;51.828;5.688;2022-08-19T11:01:44;24.40;;;16.77;;
42244;SDS011;27912;51.828;5.688;2022-08-19T11:04:10;23.98;;;16.88;;
42244;SDS011;27912;51.828;5.688;2022-08-19T11:06:38;21.33;;;17.42;;
42244;SDS011;27912;51.828;5.688;2022-08-19T11:09:06;22.42;;;16.95;;
42244;SDS011;27912;51.828;5.688;2022-08-19T11:11:33;23.17;;;18.42;;
42244;SDS011;27912;51.828;5.688;2022-08-19T11:14:09;28.83;;;19.33;;
42244;SDS011;27912;51.828;5.688;2022-08-19T11:16:36;27.33;;;18.20;;
42244;SDS011;27912;51.828;5.688;2022-08-19T11:19:04;24.13;;;18.55;;
42244;SDS011;27912;51.828;5.688;2022-08-19T11:21:33;23.05;;;17.90;;
42244;SDS011;27912;51.828;5.688;2022-08-19T11:24:03;23.80;;;18.15;;
42244;SDS011;27912;51.828;5.688;2022-08-19T11:26:31;20.65;;;17.02;;
42244;SDS011;27912;51.828;5.688;2022-08-19T11:28:57;21.80;;;18.52;;
42244;SDS011;27912;51.828;5.688;2022-08-19T11:31:25;22.00;;;18.08;;
42244;SDS011;27912;51.828;5.688;2022-08-19T11:33:56;23.77;;;18.47;;
42244;SDS011;27912;51.828;5.688;2022-08-19T11:36:22;24.50;;;19.15;;
42244;SDS011;27912;51.828;5.688;2022-08-19T11:38:48;26.92;;;19.88;;
42244;SDS011;27912;51.828;5.688;2022-08-19T11:41:15;19.88;;;17.75;;
42244;SDS011;27912;51.828;5.688;2022-08-19T11:43:43;24.60;;;19.15;;
42244;SDS011;27912;51.828;5.688;2022-08-19T11:46:09;21.23;;;16.88;;
42244;SDS011;27912;51.828;5.688;2022-08-19T11:48:37;23.45;;;16.83;;
42244;SDS011;27912;51.828;5.688;2022-08-19T11:51:05;21.95;;;18.00;;
42244;SDS011;27912;51.828;5.688;2022-08-19T11:53:35;23.05;;;17.67;;
42244;SDS011;27912;51.828;5.688;2022-08-19T11:56:03;21.33;;;18.10;;
42244;SDS011;27912;51.828;5.688;2022-08-19T11:58:30;24.90;;;18.52;;
42244;SDS011;27912;51.828;5.688;2022-08-19T12:00:56;21.70;;;18.58;;
42244;SDS011;27912;51.828;5.688;2022-08-19T12:03:21;23.13;;;18.13;;
42244;SDS011;27912;51.828;5.688;2022-08-19T12:05:47;25.30;;;19.35;;
42244;SDS011;27912;51.828;5.688;2022-08-19T12:08:14;23.15;;;19.48;;
42244;SDS011;27912;51.828;5.688;2022-08-19T12:10:40;23.35;;;18.65;;
42244;SDS011;27912;51.828;5.688;2022-08-19T12:13:10;24.02;;;19.20;;
42244;SDS011;27912;51.828;5.688;2022-08-19T12:15:40;23.15;;;18.80;;
42244;SDS011;27912;51.828;5.688;2022-08-19T12:18:06;25.83;;;19.33;;
42244;SDS011;27912;51.828;5.688;2022-08-19T12:20:34;23.98;;;20.20;;
42244;SDS011;27912;51.828;5.688;2022-08-19T12:23:01;24.88;;;18.15;;
42244;SDS011;27912;51.828;5.688;2022-08-19T12:25:28;23.67;;;19.80;;
42244;SDS011;27912;51.828;5.688;2022-08-19T12:27:53;22.13;;;19.40;;
42244;SDS011;27912;51.828;5.688;2022-08-19T12:30:19;24.88;;;18.73;;
42244;SDS011;27912;51.828;5.688;2022-08-19T12:32:45;24.90;;;19.75;;
42244;SDS011;27912;51.828;5.688;2022-08-19T12:35:11;22.77;;;18.60;;
42244;SDS011;27912;51.828;5.688;2022-08-19T12:37:37;19.70;;;16.90;;
42244;SDS011;27912;51.828;5.688;2022-08-19T12:40:04;24.08;;;17.75;;
42244;SDS011;27912;51.828;5.688;2022-08-19T12:42:30;25.23;;;19.80;;
42244;SDS011;27912;51.828;5.688;2022-08-19T12:44:55;22.58;;;19.35;;
42244;SDS011;27912;51.828;5.688;2022-08-19T12:47:21;24.73;;;20.40;;
42244;SDS011;27912;51.828;5.688;2022-08-19T12:49:47;25.00;;;20.45;;
42244;SDS011;27912;51.828;5.688;2022-08-19T12:52:14;24.35;;;21.50;;
42244;SDS011;27912;51.828;5.688;2022-08-19T12:54:41;25.65;;;20.38;;
42244;SDS011;27912;51.828;5.688;2022-08-19T12:57:08;17.55;;;15.77;;
42244;SDS011;27912;51.828;5.688;2022-08-19T12:59:35;21.83;;;17.88;;
42244;SDS011;27912;51.828;5.688;2022-08-19T13:02:02;22.65;;;19.52;;
42244;SDS011;27912;51.828;5.688;2022-08-19T13:04:31;26.17;;;19.48;;
42244;SDS011;27912;51.828;5.688;2022-08-19T13:06:57;23.02;;;19.05;;
42244;SDS011;27912;51.828;5.688;2022-08-19T13:09:23;19.92;;;16.80;;
42244;SDS011;27912;51.828;5.688;2022-08-19T13:11:49;21.15;;;18.52;;
42244;SDS011;27912;51.828;5.688;2022-08-19T13:14:14;20.33;;;17.77;;
42244;SDS011;27912;51.828;5.688;2022-08-19T13:16:40;22.77;;;19.23;;
42244;SDS011;27912;51.828;5.688;2022-08-19T13:19:06;22.90;;;17.88;;
42244;SDS011;27912;51.828;5.688;2022-08-19T13:21:32;21.98;;;17.25;;
42244;SDS011;27912;51.828;5.688;2022-08-19T13:23:57;21.63;;;17.58;;
42244;SDS011;27912;51.828;5.688;2022-08-19T13:26:23;23.95;;;19.30;;
42244;SDS011;27912;51.828;5.688;2022-08-19T13:28:49;20.30;;;17.58;;
42244;SDS011;27912;51.828;5.688;2022-08-19T13:31:34;20.95;;;18.02;;
42244;SDS011;27912;51.828;5.688;2022-08-19T13:34:28;20.52;;;16.27;;
42244;SDS011;27912;51.828;5.688;2022-08-19T13:36:55;20.48;;;16.67;;
42244;SDS011;27912;51.828;5.688;2022-08-19T13:39:21;21.95;;;17.90;;
42244;SDS011;27912;51.828;5.688;2022-08-19T13:41:48;20.75;;;18.38;;
42244;SDS011;27912;51.828;5.688;2022-08-19T13:44:15;21.15;;;16.42;;
42244;SDS011;27912;51.828;5.688;2022-08-19T13:46:43;24.55;;;17.48;;
42244;SDS011;27912;51.828;5.688;2022-08-19T13:49:09;24.02;;;19.00;;
42244;SDS011;27912;51.828;5.688;2022-08-19T13:51:35;21.98;;;18.30;;
42244;SDS011;27912;51.828;5.688;2022-08-19T13:54:02;20.92;;;17.23;;
42244;SDS011;27912;51.828;5.688;2022-08-19T13:56:27;22.55;;;18.02;;
42244;SDS011;27912;51.828;5.688;2022-08-19T13:58:53;25.92;;;19.67;;
42244;SDS011;27912;51.828;5.688;2022-08-19T14:01:19;25.65;;;19.48;;
42244;SDS011;27912;51.828;5.688;2022-08-19T14:03:48;22.63;;;18.50;;
42244;SDS011;27912;51.828;5.688;2022-08-19T14:06:13;25.73;;;19.85;;
42244;SDS011;27912;51.828;5.688;2022-08-19T14:08:40;24.77;;;19.10;;
42244;SDS011;27912;51.828;5.688;2022-08-19T14:11:06;24.30;;;18.08;;
42244;SDS011;27912;51.828;5.688;2022-08-19T14:13:33;22.73;;;17.95;;
42244;SDS011;27912;51.828;5.688;2022-08-19T14:15:58;22.00;;;17.27;;
42244;SDS011;27912;51.828;5.688;2022-08-19T14:18:24;20.17;;;15.77;;
42244;SDS011;27912;51.828;5.688;2022-08-19T14:20:50;13.70;;;10.90;;
42244;SDS011;27912;51.828;5.688;2022-08-19T14:23:16;11.73;;;9.60;;
42244;SDS011;27912;51.828;5.688;2022-08-19T14:25:42;14.90;;;10.48;;
42244;SDS011;27912;51.828;5.688;2022-08-19T14:28:09;20.92;;;16.45;;
42244;SDS011;27912;51.828;5.688;2022-08-19T14:30:36;23.48;;;17.02;;
42244;SDS011;27912;51.828;5.688;2022-08-19T14:33:03;23.13;;;16.75;;
42244;SDS011;27912;51.828;5.688;2022-08-19T14:35:30;24.55;;;18.17;;
42244;SDS011;27912;51.828;5.688;2022-08-19T14:37:59;28.67;;;23.10;;
42244;SDS011;27912;51.828;5.688;2022-08-19T14:40:26;31.20;;;24.88;;
42244;SDS011;27912;51.828;5.688;2022-08-19T14:42:55;31.05;;;25.83;;
42244;SDS011;27912;51.828;5.688;2022-08-19T14:45:24;25.98;;;22.88;;